KEAN

Phifer Airfield Airport

Wheatland, Wyoming, USA
METAR KEAN 150315Z AUTO 12008KT 10SM CLR 18/13 A3006 RMK AO2 T01800132
Observed Flight Rules
Aug-15 @ 03:15 UTC (22 minutes ago) Visual Flight Rules
Wind Visibility Clouds
120° at 8 knots 10 miles
  • Clear skies
Temperatures Readings
Current 18°C / 64°F
Dewpoint 13°C / 55°F
Humidity 73%
Altimeter 30.06" Hg
Pressure 1018 hPa
Elevation 1456
METAR KEAN 150315Z AUTO 12008KT 10SM CLR 18/13 A3006 RMK AO2 T01800132
Observed Flight Rules
Aug-15 @ 03:15 UTC
(22 minutes ago)
VFR
Wind Visibility
120° at 8 knots 10 miles
Clouds
  • Clear skies
Temperature Dewpoint
18°C / 64°F 13°C / 55°F
Humidity Altimeter Pressure
73% 30.06" Hg 1018 hPa